Time;durP1;ratioP1;P1;durP2;ratioP2;P2;SDS_P1;SDS_P2;PMS_P1;PMS_P2;Temp;Humidity;BMP_temperature;BMP_pressure;BME280_temperature;BME280_humidity;BME280_pressure;Samples;Min_cycle;Max_cycle;Signal;HPM_P1;HPM_P2
2023/04/30 00:00:11;;;;;;;5.88;4.63;;;12.30;88.10;;;15.29;51.65;97921.44;5031463;28;20064;-45
2023/04/30 00:02:39;;;;;;;6.60;5.32;;;12.30;88.00;;;15.26;51.66;97917.28;5031931;28;20304;-45
2023/04/30 00:05:07;;;;;;;6.78;5.70;;;12.30;87.70;;;15.25;51.67;97912.09;5032347;28;20049;-46
2023/04/30 00:07:34;;;;;;;6.90;4.43;;;12.30;88.00;;;15.28;51.77;97915.25;5030882;28;20052;-45
2023/04/30 00:10:04;;;;;;;6.70;4.32;;;12.40;87.80;;;15.29;51.68;97908.88;5031393;28;20049;-44
2023/04/30 00:12:31;;;;;;;8.13;4.90;;;12.40;87.50;;;15.31;51.50;97908.69;5023845;28;20045;-44
2023/04/30 00:15:00;;;;;;;7.18;5.03;;;12.40;86.20;;;15.24;51.81;97903.25;5031521;28;20045;-47
2023/04/30 00:17:27;;;;;;;7.40;5.07;;;12.40;87.20;;;15.24;51.73;97913.97;5029998;28;20045;-45
2023/04/30 00:19:55;;;;;;;6.65;4.78;;;12.40;87.20;;;15.24;51.75;97911.28;5031478;28;20049;-44
2023/04/30 00:22:23;;;;;;;9.35;6.03;;;12.40;86.80;;;15.27;51.63;97915.44;5031366;28;20050;-44
2023/04/30 00:24:50;;;;;;;8.18;4.95;;;12.50;86.50;;;15.26;51.63;97919.97;5031203;28;20413;-45
2023/04/30 00:27:18;;;;;;;7.50;5.72;;;12.50;86.50;;;15.26;51.64;97924.53;5030982;28;20497;-44
2023/04/30 00:29:45;;;;;;;8.10;5.90;;;12.40;86.30;;;15.23;51.59;97922.19;5031690;28;20042;-46
2023/04/30 00:32:13;;;;;;;10.70;6.38;;;12.30;86.20;;;15.21;51.61;97918.88;5030810;28;20541;-46
2023/04/30 00:34:41;;;;;;;9.18;6.22;;;12.30;86.70;;;15.21;51.45;97925.06;5030366;28;20382;-45
2023/04/30 00:37:09;;;;;;;8.85;6.00;;;12.30;86.70;;;15.22;51.49;97921.38;5030706;28;20508;-44
2023/04/30 00:39:36;;;;;;;9.10;6.00;;;12.30;87.00;;;15.25;51.37;97926.34;5029706;28;20052;-44
2023/04/30 00:42:04;;;;;;;7.32;5.47;;;12.30;86.70;;;15.29;51.34;97929.50;5029519;28;20417;-44
2023/04/30 00:44:32;;;;;;;9.32;6.35;;;12.30;86.50;;;15.28;51.42;97926.00;5023720;28;20091;-44
2023/04/30 00:46:59;;;;;;;7.28;5.97;;;12.30;86.50;;;15.31;51.27;97935.50;5029797;28;20041;-44
2023/04/30 00:49:27;;;;;;;8.77;6.28;;;12.30;86.20;;;15.31;51.28;97939.00;5029451;28;20064;-45
2023/04/30 00:51:55;;;;;;;9.30;6.35;;;12.30;86.20;;;15.31;51.14;97932.81;5031042;28;20041;-44
2023/04/30 00:54:24;;;;;;;10.70;6.68;;;12.30;86.00;;;15.28;51.17;97926.00;5029654;28;20493;-44
2023/04/30 00:56:51;;;;;;;9.43;7.70;;;12.30;85.50;;;15.25;51.11;97937.06;5032154;28;20520;-44
2023/04/30 00:59:19;;;;;;;9.15;6.60;;;12.30;85.50;;;15.22;51.26;97932.09;5034937;28;20033;-44
2023/04/30 01:01:47;;;;;;;8.13;5.88;;;12.30;85.50;;;15.19;51.21;97935.13;5016805;28;20049;-44
2023/04/30 01:04:15;;;;;;;8.63;6.03;;;12.40;85.30;;;15.15;51.16;97929.28;5033812;28;20057;-45
2023/04/30 01:06:42;;;;;;;9.82;6.35;;;12.30;85.20;;;15.15;51.33;97923.94;5031546;28;20045;-44
2023/04/30 01:09:10;;;;;;;11.50;7.15;;;12.30;85.70;;;15.17;51.17;97923.75;5032780;28;20050;-47
2023/04/30 01:12:12;;;;;;;9.60;6.97;;;12.30;85.70;;;15.15;51.22;97915.88;5033677;28;20057;-45
2023/04/30 01:15:31;;;;;;;8.70;6.25;;;12.30;85.70;;;15.18;51.36;97920.06;5010650;28;20046;-46
2023/04/30 01:18:09;;;;;;;9.45;6.63;;;12.30;85.50;;;15.19;51.22;97923.56;5029108;28;20049;-44
2023/04/30 01:20:46;;;;;;;8.50;5.87;;;12.30;85.70;;;15.16;51.29;97922.94;5010193;28;20497;-43
2023/04/30 01:23:45;;;;;;;10.30;6.78;;;12.30;85.60;;;15.15;51.17;97918.56;5032704;28;20528;-45
2023/04/30 01:26:34;;;;;;;7.20;5.95;;;12.30;85.60;;;15.16;51.45;97920.25;5033982;28;20128;-45
2023/04/30 01:29:03;;;;;;;9.88;6.82;;;12.30;85.80;;;15.15;51.36;97915.88;5034560;28;20045;-45
2023/04/30 01:31:30;;;;;;;7.88;5.85;;;12.30;85.70;;;15.11;51.49;97908.41;5033170;28;20440;-44
2023/04/30 01:33:58;;;;;;;8.98;6.28;;;12.30;85.60;;;15.09;51.59;97915.81;5034362;28;20046;-44
2023/04/30 01:37:04;;;;;;;8.23;6.25;;;12.30;85.70;;;15.04;51.46;97913.66;5032751;28;20049;-46
2023/04/30 01:40:13;;;;;;;8.60;6.15;;;12.30;85.50;;;15.02;51.59;97910.31;5032974;28;20409;-45
2023/04/30 01:42:48;;;;;;;8.98;6.50;;;12.30;85.70;;;14.98;51.59;97908.19;5033413;28;20045;-44
2023/04/30 01:45:45;;;;;;;8.73;6.07;;;12.20;85.60;;;14.93;51.77;97914.13;5033299;28;20060;-44
2023/04/30 01:48:59;;;;;;;7.40;6.23;;;12.20;85.70;;;14.93;51.96;97911.44;5032375;28;20053;-44
2023/04/30 01:51:54;;;;;;;8.65;6.40;;;12.20;85.80;;;14.96;51.65;97911.06;5017670;28;20072;-44
2023/04/30 01:54:37;;;;;;;8.77;6.85;;;12.20;86.40;;;14.99;51.73;97909.88;5015442;28;20049;-44
2023/04/30 01:57:23;;;;;;;9.95;7.10;;;12.20;86.30;;;15.00;51.87;97915.03;5032783;28;20049;-44
2023/04/30 01:59:51;;;;;;;9.90;6.93;;;12.20;86.50;;;15.01;51.63;97913.22;5028031;28;20639;-44
2023/04/30 02:02:19;;;;;;;9.82;7.03;;;12.20;86.30;;;15.00;51.68;97903.50;5032520;28;20497;-44
2023/04/30 02:04:47;;;;;;;10.25;7.57;;;12.20;86.20;;;15.03;51.70;97913.84;5033726;28;20060;-45
2023/04/30 02:07:38;;;;;;;10.90;7.78;;;12.20;86.00;;;15.03;51.50;97905.81;5032816;28;20041;-46
2023/04/30 02:10:07;;;;;;;7.68;5.82;;;12.20;86.20;;;15.05;51.43;97909.97;5032979;28;20060;-45
2023/04/30 02:12:35;;;;;;;10.65;7.85;;;12.20;86.10;;;15.02;51.48;97901.44;5032135;28;20049;-46
2023/04/30 02:15:05;;;;;;;9.68;8.13;;;12.20;85.80;;;15.02;51.63;97894.25;5015632;28;20045;-45
2023/04/30 02:17:33;;;;;;;12.63;7.78;;;12.20;86.00;;;15.03;51.58;97903.13;5031944;28;20056;-44
2023/04/30 02:20:01;;;;;;;10.00;7.30;;;12.20;85.80;;;14.99;51.60;97893.78;5033678;28;20104;-46
2023/04/30 02:22:29;;;;;;;8.57;7.23;;;12.20;85.70;;;14.98;51.61;97900.97;5033857;28;20041;-45
2023/04/30 02:24:56;;;;;;;10.93;7.17;;;12.20;85.80;;;14.99;51.73;97899.16;5032260;28;20053;-44
2023/04/30 02:27:25;;;;;;;10.90;7.70;;;12.20;85.90;;;15.00;51.74;97901.63;5031729;28;20052;-46
2023/04/30 02:29:53;;;;;;;12.63;8.03;;;12.10;86.30;;;15.03;51.62;97900.44;5033298;28;20041;-46
2023/04/30 02:32:21;;;;;;;10.98;7.45;;;12.10;86.30;;;15.05;51.63;97906.47;5032183;28;20053;-44
2023/04/30 02:34:49;;;;;;;9.35;7.18;;;12.10;86.40;;;15.05;51.49;97909.16;5033550;28;20046;-45
2023/04/30 02:37:16;;;;;;;12.10;9.30;;;12.10;86.50;;;15.02;51.65;97904.97;5032176;28;20049;-46
2023/04/30 02:39:44;;;;;;;11.10;7.82;;;12.00;86.60;;;15.02;51.50;97912.19;5032212;28;20072;-46
2023/04/30 02:42:11;;;;;;;9.68;7.65;;;12.00;87.10;;;15.01;51.45;97899.81;5032910;28;20042;-48
2023/04/30 02:44:40;;;;;;;10.93;8.37;;;12.00;86.90;;;14.98;51.67;97908.19;5031382;28;20045;-45
2023/04/30 02:47:07;;;;;;;10.17;8.27;;;12.00;87.10;;;14.98;51.60;97902.84;5032041;28;20061;-44
2023/04/30 02:49:35;;;;;;;9.67;7.73;;;11.90;87.00;;;14.98;51.66;97905.53;5031869;28;20049;-48
2023/04/30 02:52:03;;;;;;;11.52;7.95;;;12.00;87.20;;;14.99;51.60;97909.88;5031641;28;20064;-44
2023/04/30 02:54:30;;;;;;;11.90;8.70;;;11.90;87.50;;;14.96;51.66;97906.53;5031341;28;20512;-44
2023/04/30 02:56:58;;;;;;;11.37;8.03;;;11.90;87.80;;;14.95;51.45;97902.19;5032049;28;20045;-44
2023/04/30 02:59:26;;;;;;;10.90;8.50;;;11.90;87.70;;;14.93;51.66;97901.53;5032722;28;20416;-44
2023/04/30 03:01:53;;;;;;;11.63;7.65;;;11.90;87.80;;;14.91;51.72;97900.91;5032821;28;20057;-46
2023/04/30 03:04:21;;;;;;;13.53;8.73;;;11.90;87.90;;;14.92;51.91;97896.34;5031130;28;20073;-44
2023/04/30 03:06:48;;;;;;;10.75;8.07;;;11.90;88.20;;;14.90;51.69;97895.72;5032527;28;20053;-45
2023/04/30 03:09:16;;;;;;;11.52;8.13;;;11.90;88.00;;;14.86;51.92;97891.72;5031837;28;20042;-45
2023/04/30 03:11:44;;;;;;;12.47;7.57;;;11.90;87.80;;;14.85;51.60;97885.56;5031203;28;20048;-44
2023/04/30 03:14:11;;;;;;;10.80;7.30;;;11.80;87.30;;;14.85;51.62;97884.69;5029881;28;20041;-45
2023/04/30 03:16:39;;;;;;;10.27;7.25;;;11.80;87.20;;;14.82;51.63;97888.59;5024201;28;20409;-44
2023/04/30 03:19:07;;;;;;;11.47;9.03;;;11.80;87.10;;;14.75;51.50;97890.31;5030738;28;20068;-44
2023/04/30 03:21:34;;;;;;;8.95;6.85;;;11.80;86.80;;;14.68;51.69;97892.06;5032329;28;20060;-46
2023/04/30 03:24:02;;;;;;;11.73;7.90;;;11.80;86.60;;;14.62;51.78;97896.31;5031182;28;20050;-45
2023/04/30 03:26:29;;;;;;;13.57;9.00;;;11.70;86.40;;;14.60;51.69;97886.75;5031821;28;20493;-45
2023/04/30 03:28:57;;;;;;;11.50;8.10;;;11.60;86.90;;;14.56;51.69;97886.28;5032276;28;20049;-46
2023/04/30 03:31:25;;;;;;;11.63;8.38;;;11.60;86.20;;;14.48;51.78;97892.53;5032106;28;20037;-45
2023/04/30 03:33:52;;;;;;;11.90;8.23;;;11.60;87.30;;;14.45;51.79;97890.22;5014500;28;20053;-46
2023/04/30 03:36:21;;;;;;;10.07;8.10;;;11.50;87.20;;;14.43;52.05;97894.91;5031765;28;20497;-44
2023/04/30 03:38:48;;;;;;;11.83;8.03;;;11.50;87.30;;;14.45;51.99;97895.56;5030962;28;20048;-45
2023/04/30 03:41:16;;;;;;;11.83;8.37;;;11.60;87.40;;;14.48;52.01;97899.72;5032068;28;20048;-45
2023/04/30 03:43:43;;;;;;;12.47;8.13;;;11.50;87.50;;;14.47;51.94;97901.56;5030586;28;20053;-44
2023/04/30 03:46:11;;;;;;;11.70;8.40;;;11.50;87.30;;;14.48;51.92;97902.41;5031605;28;20037;-46
2023/04/30 03:48:39;;;;;;;11.57;8.55;;;11.50;87.90;;;14.50;51.96;97906.59;5030609;28;20042;-45
2023/04/30 03:51:06;;;;;;;10.43;8.70;;;11.50;88.20;;;14.51;52.04;97902.88;5031294;28;20060;-46
2023/04/30 03:53:34;;;;;;;10.63;7.57;;;11.50;88.40;;;14.52;52.12;97904.56;5032032;28;20524;-45
2023/04/30 03:56:03;;;;;;;11.55;8.48;;;11.50;88.60;;;14.50;52.37;97901.22;5014203;28;20041;-45
2023/04/30 03:58:31;;;;;;;12.23;9.23;;;11.50;89.00;;;14.51;52.20;97899.38;5030009;28;20528;-45
2023/04/30 04:00:59;;;;;;;10.90;8.33;;;11.50;89.20;;;14.50;52.14;97903.91;5031037;28;20409;-45
2023/04/30 04:03:26;;;;;;;13.50;9.52;;;11.50;89.30;;;14.53;52.40;97900.84;5030924;28;20045;-45
2023/04/30 04:05:54;;;;;;;10.07;8.30;;;11.50;89.40;;;14.56;52.38;97905.03;5029785;28;20057;-44
2023/04/30 04:08:22;;;;;;;12.43;8.87;;;11.50;89.40;;;14.53;52.39;97908.88;5027665;28;20410;-45
2023/04/30 04:10:49;;;;;;;10.07;8.13;;;11.50;89.80;;;14.53;52.41;97905.38;5030662;28;20045;-45
2023/04/30 04:13:17;;;;;;;10.73;8.97;;;11.40;90.00;;;14.52;52.44;97904.56;5030542;28;20056;-46
2023/04/30 04:15:45;;;;;;;11.90;9.47;;;11.50;90.40;;;14.56;52.39;97902.34;5029609;28;20061;-45
2023/04/30 04:18:13;;;;;;;12.73;8.90;;;11.50;90.20;;;14.56;52.41;97911.25;5031178;28;20390;-45
2023/04/30 04:20:40;;;;;;;12.00;7.97;;;11.50;90.30;;;14.59;52.30;97915.41;5029998;28;20068;-44
2023/04/30 04:23:08;;;;;;;12.52;9.93;;;11.50;90.50;;;14.58;52.43;97916.44;5030404;28;20053;-45
2023/04/30 04:25:35;;;;;;;12.33;9.30;;;11.50;90.60;;;14.56;52.46;97915.75;5030982;28;20044;-45
2023/04/30 04:28:03;;;;;;;12.87;9.03;;;11.50;90.60;;;14.56;52.62;97913.06;5029879;28;20049;-44
2023/04/30 04:30:31;;;;;;;10.02;8.43;;;11.50;90.70;;;14.56;52.45;97921.13;5029092;28;20053;-44
2023/04/30 04:32:59;;;;;;;10.38;8.25;;;11.50;90.60;;;14.55;52.49;97920.25;5029889;28;20049;-46
2023/04/30 04:35:28;;;;;;;10.43;9.07;;;11.50;90.60;;;14.56;52.59;97921.97;5029983;28;20571;-45
2023/04/30 04:37:56;;;;;;;11.60;8.70;;;11.50;90.60;;;14.58;52.53;97916.44;5029570;28;20048;-44
2023/04/30 04:40:24;;;;;;;10.88;8.45;;;11.50;90.60;;;14.57;52.47;97917.44;5029685;28;20048;-48
2023/04/30 04:42:51;;;;;;;13.00;9.23;;;11.50;90.40;;;14.59;52.54;97925.31;5029538;28;20038;-44
2023/04/30 04:45:19;;;;;;;12.77;8.70;;;11.50;90.50;;;14.61;52.63;97928.63;5029981;28;20052;-44
2023/04/30 04:47:48;;;;;;;12.73;9.50;;;11.50;90.80;;;14.60;52.59;97930.50;5029313;28;20413;-45
2023/04/30 04:50:16;;;;;;;14.57;9.37;;;11.60;90.60;;;14.62;52.62;97924.94;5029613;28;20056;-44
2023/04/30 04:52:44;;;;;;;10.10;8.57;;;11.50;90.60;;;14.60;52.71;97922.44;5013380;28;20420;-45
2023/04/30 04:55:12;;;;;;;10.90;9.07;;;11.50;90.90;;;14.60;52.76;97924.28;5029401;28;20049;-44
2023/04/30 04:57:41;;;;;;;11.80;8.68;;;11.50;91.30;;;14.58;52.77;97929.84;5030637;28;20044;-45
2023/04/30 05:00:10;;;;;;;11.30;8.73;;;11.50;91.60;;;14.61;52.80;97934.81;5029366;28;20474;-44
2023/04/30 05:02:38;;;;;;;11.45;8.10;;;11.50;91.80;;;14.64;52.95;97928.28;5031076;28;20052;-45
2023/04/30 05:05:06;;;;;;;13.90;8.52;;;11.50;92.00;;;14.65;52.89;97921.91;5013218;28;20412;-44
2023/04/30 05:07:34;;;;;;;13.50;8.80;;;11.60;92.00;;;14.65;52.85;97929.94;5030478;28;20057;-45
2023/04/30 05:10:02;;;;;;;13.43;8.40;;;11.60;92.10;;;14.62;52.83;97923.09;5013764;28;20056;-44
2023/04/30 05:12:30;;;;;;;12.27;9.03;;;11.60;92.60;;;14.66;53.24;97927.09;5029409;28;20049;-44
2023/04/30 05:14:57;;;;;;;12.13;9.67;;;11.60;92.60;;;14.69;53.10;97931.25;5030269;28;20048;-46
2023/04/30 05:17:25;;;;;;;14.87;10.90;;;11.60;92.50;;;14.70;52.94;97932.91;5030365;28;20061;-47
2023/04/30 05:19:52;;;;;;;20.00;14.60;;;11.60;92.40;;;14.72;52.90;97926.34;5030801;28;20041;-45
2023/04/30 05:22:20;;;;;;;15.90;11.17;;;11.70;92.10;;;14.79;52.93;97928.31;5030601;28;20045;-47
2023/04/30 05:24:48;;;;;;;14.77;10.57;;;11.80;91.70;;;14.82;52.75;97928.78;5030717;28;20037;-46
2023/04/30 05:27:15;;;;;;;13.82;10.52;;;11.80;91.30;;;14.86;52.77;97931.94;5030412;28;20413;-45
2023/04/30 05:29:43;;;;;;;10.57;8.35;;;11.80;91.10;;;14.89;52.58;97931.59;5030302;28;20038;-45
2023/04/30 05:32:10;;;;;;;11.38;8.55;;;11.90;90.90;;;14.93;52.47;97931.03;5030746;28;20437;-45
2023/04/30 05:34:38;;;;;;;11.38;8.63;;;11.90;90.40;;;14.96;52.50;97932.50;5030480;28;20060;-45
2023/04/30 05:37:06;;;;;;;10.63;8.25;;;11.90;90.20;;;14.98;52.57;97935.00;5030264;28;20038;-44
2023/04/30 05:39:33;;;;;;;10.63;8.10;;;11.90;90.10;;;14.99;52.60;97931.31;5030327;28;20049;-45
2023/04/30 05:42:02;;;;;;;13.65;8.95;;;12.00;90.30;;;15.02;52.63;97936.31;5031425;28;20037;-45
2023/04/30 05:44:29;;;;;;;13.73;8.45;;;12.00;90.40;;;15.03;52.50;97929.94;5034154;28;20033;-45
2023/04/30 05:46:56;;;;;;;9.35;7.53;;;12.00;90.30;;;15.04;52.58;97936.97;5033930;28;20040;-46
2023/04/30 05:49:24;;;;;;;13.27;8.97;;;12.00;90.60;;;15.03;52.76;97924.59;5033862;28;20508;-44
2023/04/30 05:51:52;;;;;;;10.43;8.23;;;12.00;90.70;;;15.07;52.67;97923.19;5034504;28;20049;-45
2023/04/30 05:54:19;;;;;;;11.13;8.35;;;12.00;90.70;;;15.11;52.63;97927.19;5033900;28;20068;-45
2023/04/30 05:56:47;;;;;;;12.93;9.95;;;12.10;90.40;;;15.14;52.71;97922.28;5032700;28;20042;-47
2023/04/30 05:59:14;;;;;;;14.38;8.77;;;12.20;90.20;;;15.21;52.49;97925.06;5033925;28;20417;-45
2023/04/30 06:01:42;;;;;;;11.60;8.43;;;12.20;89.60;;;15.25;52.44;97920.97;5033628;28;20050;-47
2023/04/30 06:04:10;;;;;;;10.68;9.25;;;12.30;89.20;;;15.29;52.22;97926.81;5033931;28;20042;-49
2023/04/30 06:06:38;;;;;;;10.05;7.82;;;12.40;88.70;;;15.34;52.02;97932.47;5033374;28;20069;-49
2023/04/30 06:09:05;;;;;;;10.23;8.18;;;12.40;88.10;;;15.38;51.96;97932.94;5033801;28;20044;-48
2023/04/30 06:11:33;;;;;;;11.38;8.73;;;12.40;87.80;;;15.43;52.02;97934.06;5033688;28;20416;-49
2023/04/30 06:14:02;;;;;;;11.75;8.35;;;12.50;87.90;;;15.46;51.81;97930.16;5032718;28;20045;-46
2023/04/30 06:16:30;;;;;;;10.15;7.88;;;12.50;87.60;;;15.50;51.66;97928.75;5031947;28;20041;-47
2023/04/30 06:18:58;;;;;;;11.38;8.77;;;12.50;87.00;;;15.52;51.42;97929.41;5033611;28;20056;-45
2023/04/30 06:21:25;;;;;;;10.82;8.50;;;12.50;87.10;;;15.53;51.44;97936.44;5033422;28;20046;-47
2023/04/30 06:23:53;;;;;;;13.13;9.18;;;12.50;86.70;;;15.54;51.37;97935.41;5033329;28;20037;-47
2023/04/30 06:26:20;;;;;;;10.60;8.70;;;12.60;86.30;;;15.54;51.67;97938.94;5048444;28;20045;-46
2023/04/30 06:28:48;;;;;;;11.60;8.63;;;12.70;86.30;;;15.61;51.34;97935.53;5033315;28;20045;-48
2023/04/30 06:31:15;;;;;;;11.13;8.25;;;12.60;85.60;;;15.64;51.41;97943.19;5033409;28;20493;-47
2023/04/30 06:33:43;;;;;;;10.82;9.07;;;12.70;85.70;;;15.66;51.27;97938.47;5033203;28;20049;-46
2023/04/30 06:36:11;;;;;;;12.95;9.18;;;12.70;85.60;;;15.66;51.29;97936.59;5031889;28;20045;-46
2023/04/30 06:38:40;;;;;;;12.90;8.93;;;12.70;85.60;;;15.68;51.24;97942.66;5033207;28;20049;-46
2023/04/30 06:41:07;;;;;;;14.43;10.05;;;12.70;86.50;;;15.68;51.21;97936.44;5033245;28;20033;-46
2023/04/30 06:43:35;;;;;;;10.85;9.70;;;12.70;85.70;;;15.68;51.15;97944.47;5032827;28;20056;-49
2023/04/30 06:46:03;;;;;;;13.30;9.38;;;12.70;85.20;;;15.69;50.97;97943.47;5032886;28;20420;-46
2023/04/30 06:48:31;;;;;;;10.98;9.05;;;12.70;84.80;;;15.68;50.90;97939.97;5032694;28;20053;-45
2023/04/30 06:50:59;;;;;;;11.48;9.15;;;12.70;84.70;;;15.72;51.12;97938.56;5032914;28;20520;-46
2023/04/30 06:53:26;;;;;;;12.38;10.00;;;12.80;84.50;;;15.75;51.03;97937.38;5031618;28;20056;-46
2023/04/30 06:55:54;;;;;;;11.77;9.77;;;12.90;84.50;;;15.75;50.99;97940.88;5032634;28;20497;-47
2023/04/30 06:58:23;;;;;;;10.65;8.70;;;12.90;83.80;;;15.81;50.83;97947.38;5032580;28;20053;-47
2023/04/30 07:00:51;;;;;;;11.70;9.73;;;12.90;83.70;;;15.85;50.77;97948.66;5032653;28;20044;-51
2023/04/30 07:03:18;;;;;;;11.45;8.68;;;13.00;82.90;;;15.94;50.75;97944.03;5032752;28;20037;-49
2023/04/30 07:05:46;;;;;;;14.68;10.32;;;13.10;83.10;;;16.05;50.79;97951.59;5032443;28;20531;-47
2023/04/30 07:08:14;;;;;;;13.38;9.32;;;13.20;83.00;;;16.08;50.39;97945.84;5031293;28;20041;-45
2023/04/30 07:10:41;;;;;;;12.57;9.68;;;13.30;82.40;;;16.07;50.45;97943.34;5028352;28;20046;-46
2023/04/30 07:13:09;;;;;;;12.70;9.57;;;13.30;81.80;;;16.05;50.41;97938.19;5031371;28;20046;-45
2023/04/30 07:15:37;;;;;;;13.35;9.50;;;13.30;81.40;;;16.03;50.23;97929.47;5032358;28;20072;-46
2023/04/30 07:18:04;;;;;;;13.35;10.18;;;13.20;81.30;;;16.06;50.40;97929.06;5032374;28;20045;-48
2023/04/30 07:20:32;;;;;;;12.93;9.70;;;13.20;81.60;;;16.05;50.11;97930.13;5032647;28;20045;-47
2023/04/30 07:23:00;;;;;;;11.90;9.52;;;13.20;81.10;;;16.06;50.24;97934.44;5032380;28;20038;-47
2023/04/30 07:25:27;;;;;;;15.23;9.27;;;13.30;81.20;;;16.10;50.08;97933.03;5031083;28;20409;-46
2023/04/30 07:27:55;;;;;;;12.43;9.75;;;13.30;80.50;;;16.13;49.83;97935.38;5030914;28;20042;-46
2023/04/30 07:30:22;;;;;;;12.20;10.50;;;13.40;79.40;;;16.22;49.73;97929.88;5032307;28;20041;-47
2023/04/30 07:32:52;;;;;;;12.05;9.40;;;13.50;79.10;;;16.31;49.50;97932.25;5032019;28;20045;-46
2023/04/30 07:35:19;;;;;;;9.68;7.43;;;13.60;78.50;;;16.37;49.16;97930.66;5031879;28;20037;-45
2023/04/30 07:37:47;;;;;;;12.85;8.45;;;13.60;78.30;;;16.40;48.87;97924.91;5031851;28;20068;-46
2023/04/30 07:40:14;;;;;;;10.88;8.55;;;13.60;77.10;;;16.41;48.72;97923.03;5031752;28;20038;-50
2023/04/30 07:42:51;;;;;;;11.43;9.23;;;13.70;76.60;;;16.44;48.75;97928.03;5031983;28;20060;-47
2023/04/30 07:45:19;;;;;;;10.57;8.15;;;13.70;76.40;;;16.49;48.77;97922.91;5031922;28;20494;-47
2023/04/30 07:47:47;;;;;;;11.70;8.35;;;13.80;76.60;;;16.54;48.57;97925.88;5031520;28;20041;-45
2023/04/30 07:50:16;;;;;;;10.32;8.30;;;13.80;76.40;;;16.56;48.36;97910.38;5030294;28;20050;-47
2023/04/30 07:52:43;;;;;;;10.48;8.15;;;13.80;75.90;;;16.57;48.28;97912.03;5031766;28;20416;-47
2023/04/30 07:55:11;;;;;;;9.77;8.45;;;13.90;75.80;;;16.61;48.53;97907.91;5031688;28;20052;-47
2023/04/30 07:57:39;;;;;;;11.82;8.68;;;13.90;76.40;;;16.62;48.67;97914.16;5030303;28;20049;-48
2023/04/30 08:00:08;;;;;;;9.20;7.75;;;13.90;76.30;;;16.64;48.49;97904.84;5031809;28;20038;-46
2023/04/30 08:02:44;;;;;;;11.02;8.60;;;13.90;76.00;;;16.61;48.31;97907.91;5032170;28;20430;-46
2023/04/30 08:05:12;;;;;;;10.65;8.20;;;13.90;76.30;;;16.60;48.48;97908.13;5031419;28;20046;-47
2023/04/30 08:07:40;;;;;;;10.93;8.57;;;13.90;75.80;;;16.58;48.15;97910.19;5031201;28;20042;-46
2023/04/30 08:10:08;;;;;;;10.63;8.48;;;13.90;74.80;;;16.60;48.16;97908.13;5031426;28;20041;-47
2023/04/30 08:12:36;;;;;;;10.07;7.40;;;13.90;74.80;;;16.62;47.63;97906.91;5031271;28;20046;-45
2023/04/30 08:15:06;;;;;;;8.18;7.25;;;13.90;73.70;;;16.63;47.68;97913.94;5030680;28;20045;-46
2023/04/30 08:17:34;;;;;;;9.95;7.38;;;13.90;73.80;;;16.67;47.48;97907.19;5031094;28;20053;-47
2023/04/30 08:20:06;;;;;;;7.70;6.60;;;13.90;73.40;;;16.71;47.07;97908.44;5031528;28;20048;-46
2023/04/30 08:22:33;;;;;;;8.50;6.35;;;14.00;72.10;;;16.70;46.39;97914.00;5031025;28;20068;-45
2023/04/30 08:25:01;;;;;;;7.30;5.80;;;14.10;70.80;;;16.73;46.33;97913.63;5031238;28;20049;-47
2023/04/30 08:27:31;;;;;;;8.73;6.32;;;14.10;70.30;;;16.79;45.83;97917.38;5031309;28;20041;-45
2023/04/30 08:29:58;;;;;;;8.35;5.95;;;14.20;68.90;;;16.86;46.25;97912.94;5023616;28;20124;-46
2023/04/30 08:32:27;;;;;;;9.52;5.55;;;14.20;69.60;;;16.93;46.17;97914.63;5031317;28;20045;-46
2023/04/30 08:34:54;;;;;;;8.15;6.15;;;14.30;69.70;;;17.02;46.13;97911.78;5031271;28;20041;-45
2023/04/30 08:37:22;;;;;;;8.10;6.15;;;14.40;69.80;;;17.08;46.18;97919.09;5030889;28;20045;-44
2023/04/30 08:39:50;;;;;;;6.93;5.75;;;14.50;69.90;;;17.16;46.03;97915.41;5031070;28;20056;-45
2023/04/30 08:42:20;;;;;;;7.35;5.50;;;14.60;69.60;;;17.28;45.52;97914.66;5030149;28;20045;-43
2023/04/30 08:44:47;;;;;;;6.68;5.80;;;14.70;68.40;;;17.42;45.13;97914.75;5029758;28;20057;-45
2023/04/30 08:47:17;;;;;;;8.98;5.90;;;14.90;67.00;;;17.48;44.90;97916.66;5030752;28;20052;-44
2023/04/30 08:49:45;;;;;;;7.45;5.40;;;15.00;66.80;;;17.53;44.39;97919.59;5030771;28;20041;-44
2023/04/30 08:52:13;;;;;;;5.28;4.63;;;15.00;65.60;;;17.56;44.18;97915.66;5030663;28;20049;-44
2023/04/30 08:54:43;;;;;;;6.35;5.28;;;15.10;65.20;;;17.64;43.77;97916.34;5030684;28;20500;-45
2023/04/30 08:57:10;;;;;;;5.72;4.93;;;15.20;64.00;;;17.76;43.36;97918.44;5029513;28;20065;-46
2023/04/30 08:59:38;;;;;;;7.43;5.15;;;15.30;63.00;;;17.83;43.57;97916.59;5030879;28;20520;-45
2023/04/30 09:02:06;;;;;;;6.18;4.75;;;15.40;63.30;;;17.96;43.27;97924.78;5021588;28;20041;-44
2023/04/30 09:04:34;;;;;;;4.82;4.32;;;15.50;63.30;;;18.05;43.29;97922.75;5028973;28;20413;-46
2023/04/30 09:07:03;;;;;;;4.88;4.28;;;15.60;63.30;;;18.15;43.19;97917.78;5030661;28;20041;-44
2023/04/30 09:09:39;;;;;;;6.93;5.15;;;15.60;62.60;;;18.26;42.67;97924.44;5029691;28;20053;-48
2023/04/30 09:12:16;;;;;;;4.85;4.35;;;15.60;60.50;;;18.30;42.32;97915.75;5022490;28;20068;-46
2023/04/30 09:15:04;;;;;;;6.13;4.40;;;15.70;60.90;;;18.39;42.39;97912.88;5044448;28;20045;-47
2023/04/30 09:17:34;;;;;;;5.63;3.95;;;15.80;58.10;;;18.47;41.86;97909.97;5048032;28;20056;-46
2023/04/30 09:20:12;;;;;;;5.53;4.10;;;15.80;60.90;;;18.53;41.66;97913.72;5026676;28;20045;-47
2023/04/30 09:22:41;;;;;;;4.57;4.03;;;15.80;57.60;;;18.57;40.26;97909.56;5034570;28;20432;-46
2023/04/30 09:25:10;;;;;;;5.07;4.18;;;15.90;58.50;;;18.63;40.17;97904.19;5034655;28;20201;-48
2023/04/30 09:27:37;;;;;;;4.95;3.53;;;15.90;57.00;;;18.67;40.17;97905.44;5034438;28;20057;-45
2023/04/30 09:30:07;;;;;;;5.88;4.18;;;16.10;57.80;;;18.70;40.73;97909.59;5034639;28;20044;-47
2023/04/30 09:32:35;;;;;;;6.63;4.80;;;16.10;58.50;;;18.82;40.51;97910.66;5033201;28;20045;-48
2023/04/30 09:35:03;;;;;;;6.50;4.60;;;16.20;58.30;;;18.95;39.79;97911.69;5034092;28;20037;-48
2023/04/30 09:37:36;;;;;;;7.22;4.15;;;16.40;57.30;;;19.02;39.98;97907.97;5034275;28;20128;-49
2023/04/30 09:40:04;;;;;;;4.30;3.77;;;16.50;56.40;;;19.15;39.70;97900.88;5034477;28;20045;-49
2023/04/30 09:42:32;;;;;;;3.67;3.20;;;16.50;56.50;;;19.24;39.71;97907.72;5034066;28;20034;-45
2023/04/30 09:44:59;;;;;;;3.65;3.15;;;16.70;56.50;;;19.30;39.06;97906.88;5032911;28;20038;-46
2023/04/30 09:47:30;;;;;;;4.65;3.72;;;16.80;55.70;;;19.36;38.77;97910.59;5032801;28;20052;-49
2023/04/30 09:49:59;;;;;;;4.45;3.72;;;16.80;54.80;;;19.32;38.53;97912.88;5032492;28;20265;-48
2023/04/30 09:52:27;;;;;;;5.20;3.60;;;16.80;54.20;;;19.32;38.63;97906.69;5032902;28;20046;-46
2023/04/30 09:54:54;;;;;;;5.63;3.45;;;16.80;54.40;;;19.42;38.79;97907.06;5033816;28;20049;-46
2023/04/30 09:57:23;;;;;;;4.55;3.45;;;16.90;54.60;;;19.50;37.70;97911.41;5032596;28;20049;-45
2023/04/30 09:59:52;;;;;;;6.78;3.75;;;17.00;52.60;;;19.46;37.08;97911.00;5034090;28;20050;-46
2023/04/30 10:02:22;;;;;;;4.07;3.53;;;16.90;51.80;;;19.39;38.17;97912.91;5024013;28;20052;-47
2023/04/30 10:04:56;;;;;;;4.28;3.58;;;16.90;53.50;;;19.45;38.42;97910.16;5032530;28;20516;-46
2023/04/30 10:07:38;;;;;;;4.50;4.07;;;16.80;53.20;;;19.53;38.59;97905.59;5032734;28;20053;-50
2023/04/30 10:10:09;;;;;;;6.25;3.90;;;16.80;54.20;;;19.62;38.00;97907.84;5021963;28;20041;-48
2023/04/30 10:12:46;;;;;;;4.03;3.58;;;16.90;53.40;;;19.72;37.84;97899.31;5031459;28;20052;-48
2023/04/30 10:15:24;;;;;;;4.90;3.58;;;17.00;52.00;;;19.80;37.28;97901.78;5032257;28;20049;-48
2023/04/30 10:18:01;;;;;;;4.03;3.63;;;17.10;51.50;;;19.88;37.38;97899.88;5032223;28;20053;-46
2023/04/30 10:20:33;;;;;;;4.00;3.25;;;17.20;51.20;;;19.93;36.75;97898.19;5032508;28;20412;-46
2023/04/30 10:23:01;;;;;;;7.63;4.55;;;17.20;51.30;;;19.98;36.93;97901.06;5032174;28;20038;-48
2023/04/30 10:25:30;;;;;;;6.18;3.55;;;17.40;52.00;;;20.00;36.76;97896.28;5015956;28;20061;-50